createdAt,value
2018-07-12T00:00:05.580Z,1003.01
2018-07-12T00:01:05.602Z,1003.06
2018-07-12T00:02:05.629Z,1003.01
2018-07-12T00:03:05.650Z,1003.02
2018-07-12T00:04:05.666Z,1002.98
2018-07-12T00:05:05.686Z,1002.96
2018-07-12T00:06:05.709Z,1002.96
2018-07-12T00:07:05.730Z,1002.95
2018-07-12T00:08:05.751Z,1002.93
2018-07-12T00:09:05.773Z,1002.96
2018-07-12T00:10:05.793Z,1003.01
2018-07-12T00:11:05.815Z,1002.94
2018-07-12T00:12:05.837Z,1002.97
2018-07-12T00:13:05.860Z,1002.97
2018-07-12T00:14:05.879Z,1002.93
2018-07-12T00:15:05.901Z,1002.93
2018-07-12T00:16:05.922Z,1002.95
2018-07-12T00:17:05.944Z,1002.94
2018-07-12T00:18:05.969Z,1002.91
2018-07-12T00:19:05.988Z,1002.92
2018-07-12T00:20:06.008Z,1002.93
2018-07-12T00:21:06.029Z,1002.93
2018-07-12T00:22:06.050Z,1002.89
2018-07-12T00:23:06.073Z,1002.87
2018-07-12T00:24:06.096Z,1002.87
2018-07-12T00:25:06.114Z,1002.83
2018-07-12T00:26:06.136Z,1002.83
2018-07-12T00:27:06.157Z,1002.83
2018-07-12T00:28:06.178Z,1002.84
2018-07-12T00:29:06.198Z,1002.81
2018-07-12T00:30:06.220Z,1002.76
2018-07-12T00:31:06.354Z,1002.77
2018-07-12T00:32:06.265Z,1002.77
2018-07-12T00:33:06.289Z,1002.84
2018-07-12T00:34:06.307Z,1002.81
2018-07-12T00:35:06.328Z,1002.8
2018-07-12T00:36:06.350Z,1002.82
2018-07-12T00:37:06.369Z,1002.79
2018-07-12T00:38:06.391Z,1002.81
2018-07-12T00:39:06.527Z,1002.76
2018-07-12T00:40:06.434Z,1002.8
2018-07-12T00:41:06.566Z,1002.77
2018-07-12T00:42:06.575Z,1002.79
2018-07-12T00:43:06.584Z,1002.76
2018-07-12T00:44:06.519Z,1002.75
2018-07-12T00:45:06.539Z,1002.77
2018-07-12T00:46:06.648Z,1002.74
2018-07-12T00:47:06.589Z,1002.78
2018-07-12T00:48:06.604Z,1002.77
2018-07-12T00:49:06.626Z,1002.8
2018-07-12T00:50:06.651Z,1002.81
2018-07-12T00:51:06.668Z,1002.83
2018-07-12T00:52:06.781Z,1002.86
2018-07-12T00:53:06.710Z,1002.9
2018-07-12T00:54:06.810Z,1002.91
2018-07-12T00:55:06.750Z,1002.9
2018-07-12T00:56:06.773Z,1002.88
2018-07-12T00:57:06.793Z,1002.84
2018-07-12T00:58:06.894Z,1002.84
2018-07-12T00:59:06.837Z,1002.84
2018-07-12T01:00:06.913Z,1002.86
2018-07-12T01:01:06.931Z,1002.9
2018-07-12T01:02:06.898Z,1002.85
2018-07-12T01:03:06.920Z,1002.86
2018-07-12T01:04:06.941Z,1002.84
2018-07-12T01:05:06.963Z,1002.86
2018-07-12T01:06:06.984Z,1002.85
2018-07-12T01:07:07.004Z,1002.83
2018-07-12T01:08:07.026Z,1002.85
2018-07-12T01:09:07.046Z,1002.85
2018-07-12T01:10:07.067Z,1002.83
2018-07-12T01:11:07.088Z,1002.84
2018-07-12T01:12:07.109Z,1002.88
2018-07-12T01:13:07.129Z,1002.86
2018-07-12T01:14:07.150Z,1002.94
2018-07-12T01:15:07.172Z,1002.9
2018-07-12T01:16:07.194Z,1002.94
2018-07-12T01:17:07.215Z,1003.02
2018-07-12T01:18:07.234Z,1002.99
2018-07-12T01:19:07.255Z,1003
2018-07-12T01:20:07.277Z,1002.98
2018-07-12T01:21:07.300Z,1002.93
2018-07-12T01:22:07.323Z,1002.92
2018-07-12T01:23:07.343Z,1002.89
2018-07-12T01:24:07.361Z,1002.84
2018-07-12T01:25:07.381Z,1002.86
2018-07-12T01:26:07.402Z,1002.85
2018-07-12T01:27:07.423Z,1002.87
2018-07-12T01:28:07.447Z,1002.89
2018-07-12T01:29:07.464Z,1002.88
2018-07-12T01:30:07.488Z,1002.91
2018-07-12T01:31:07.507Z,1002.85
2018-07-12T01:32:07.526Z,1002.91
2018-07-12T01:33:07.547Z,1002.92
2018-07-12T01:34:07.568Z,1002.93
2018-07-12T01:35:07.591Z,1002.95
2018-07-12T01:36:07.628Z,1002.9
2018-07-12T01:37:07.732Z,1002.92
2018-07-12T01:38:07.651Z,1002.95
2018-07-12T01:39:07.756Z,1002.92
2018-07-12T01:40:07.765Z,1002.94
2018-07-12T01:41:07.713Z,1002.88
2018-07-12T01:42:07.795Z,1002.93
2018-07-12T01:43:07.753Z,1002.92
2018-07-12T01:44:07.775Z,1002.95
2018-07-12T01:45:07.795Z,1002.9
2018-07-12T01:46:07.816Z,1002.94
2018-07-12T01:47:07.837Z,1002.92
2018-07-12T01:48:07.859Z,1002.9
2018-07-12T01:49:07.878Z,1002.9
2018-07-12T01:50:07.926Z,1002.86
2018-07-12T01:51:07.920Z,1002.89
2018-07-12T01:52:07.951Z,1002.84
2018-07-12T01:53:07.961Z,1002.86
2018-07-12T01:54:07.983Z,1002.83
2018-07-12T01:55:08.004Z,1002.85
2018-07-12T01:56:08.025Z,1002.86
2018-07-12T01:57:08.045Z,1002.87
2018-07-12T01:58:08.065Z,1002.91
2018-07-12T01:59:08.086Z,1002.87
2018-07-12T02:00:08.106Z,1002.88
2018-07-12T02:01:08.127Z,1002.91
2018-07-12T02:02:08.147Z,1002.91
2018-07-12T02:03:08.168Z,1002.92
2018-07-12T02:04:08.188Z,1002.89
2018-07-12T02:05:08.208Z,1002.88
2018-07-12T02:06:08.229Z,1002.88
2018-07-12T02:07:08.250Z,1002.88
2018-07-12T02:08:08.269Z,1002.85
2018-07-12T02:09:08.290Z,1002.82
2018-07-12T02:10:08.312Z,1002.83
2018-07-12T02:11:08.333Z,1002.81
2018-07-12T02:12:08.352Z,1002.79
2018-07-12T02:13:08.373Z,1002.79
2018-07-12T02:14:08.393Z,1002.8
2018-07-12T02:15:08.413Z,1002.8
2018-07-12T02:16:08.442Z,1002.77
2018-07-12T02:17:08.458Z,1002.81
2018-07-12T02:18:08.476Z,1002.78
2018-07-12T02:19:08.495Z,1002.78
2018-07-12T02:20:08.516Z,1002.78
2018-07-12T02:21:08.640Z,1002.79
2018-07-12T02:22:08.557Z,1002.76
2018-07-12T02:23:08.579Z,1002.79
2018-07-12T02:24:08.598Z,1002.79
2018-07-12T02:25:08.622Z,1002.77
2018-07-12T02:26:08.639Z,1002.79
2018-07-12T02:27:08.659Z,1002.76
2018-07-12T02:28:08.681Z,1002.79
2018-07-12T02:29:08.699Z,1002.78
2018-07-12T02:30:08.719Z,1002.77
2018-07-12T02:31:08.740Z,1002.77
2018-07-12T02:32:08.762Z,1002.78
2018-07-12T02:33:08.784Z,1002.79
2018-07-12T02:34:08.804Z,1002.79
2018-07-12T02:35:08.861Z,1002.78
2018-07-12T02:36:08.844Z,1002.79
2018-07-12T02:37:08.865Z,1002.77
2018-07-12T02:38:08.981Z,1002.79
2018-07-12T02:39:08.904Z,1002.76
2018-07-12T02:40:08.929Z,1002.79
2018-07-12T02:41:08.946Z,1002.73
2018-07-12T02:42:08.965Z,1002.72
2018-07-12T02:43:08.986Z,1002.71
2018-07-12T02:44:09.005Z,1002.74
2018-07-12T02:45:09.027Z,1002.7
2018-07-12T02:46:09.048Z,1002.69
2018-07-12T02:47:09.069Z,1002.69
2018-07-12T02:48:09.088Z,1002.67
2018-07-12T02:49:09.113Z,1002.72
2018-07-12T02:50:09.129Z,1002.67
2018-07-12T02:51:09.151Z,1002.7
2018-07-12T02:52:09.168Z,1002.69
2018-07-12T02:53:09.189Z,1002.7
2018-07-12T02:54:09.210Z,1002.64
2018-07-12T02:55:09.229Z,1002.65
2018-07-12T02:56:09.250Z,1002.64
2018-07-12T02:57:09.272Z,1002.66
2018-07-12T02:58:09.292Z,1002.65
2018-07-12T02:59:09.312Z,1002.6
2018-07-12T03:00:09.331Z,1002.62
2018-07-12T03:01:09.352Z,1002.62
2018-07-12T03:02:09.372Z,1002.61
2018-07-12T03:03:09.391Z,1002.58
2018-07-12T03:04:09.412Z,1002.58
2018-07-12T03:05:09.437Z,1002.6
2018-07-12T03:06:09.453Z,1002.57
2018-07-12T03:07:09.474Z,1002.59
2018-07-12T03:08:09.501Z,1002.56
2018-07-12T03:09:09.514Z,1002.55
2018-07-12T03:10:09.533Z,1002.53
2018-07-12T03:11:09.558Z,1002.53
2018-07-12T03:12:09.584Z,1002.49
2018-07-12T03:13:09.595Z,1002.49
2018-07-12T03:14:09.614Z,1002.48
2018-07-12T03:15:09.637Z,1002.53
2018-07-12T03:16:09.655Z,1002.55
2018-07-12T03:17:09.679Z,1002.58
2018-07-12T03:18:09.696Z,1002.6
2018-07-12T03:19:09.718Z,1002.61
2018-07-12T03:20:09.736Z,1002.59
2018-07-12T03:21:09.757Z,1002.64
2018-07-12T03:22:09.778Z,1002.65
2018-07-12T03:23:09.797Z,1002.64
2018-07-12T03:24:09.817Z,1002.65
2018-07-12T03:25:09.840Z,1002.69
2018-07-12T03:26:09.857Z,1002.65
2018-07-12T03:27:09.877Z,1002.64
2018-07-12T03:28:09.899Z,1002.66
2018-07-12T03:29:09.920Z,1002.63
2018-07-12T03:30:09.948Z,1002.62
2018-07-12T03:31:09.961Z,1002.64
2018-07-12T03:32:09.979Z,1002.65
2018-07-12T03:33:10.000Z,1002.68
2018-07-12T03:34:10.023Z,1002.69
2018-07-12T03:35:10.041Z,1002.63
2018-07-12T03:36:10.062Z,1002.63
2018-07-12T03:37:10.081Z,1002.65
2018-07-12T03:38:10.101Z,1002.65
2018-07-12T03:39:10.120Z,1002.64
2018-07-12T03:40:10.145Z,1002.61
2018-07-12T03:41:10.160Z,1002.61
2018-07-12T03:42:10.182Z,1002.62
2018-07-12T03:43:10.202Z,1002.62
2018-07-12T03:44:10.221Z,1002.59
2018-07-12T03:45:10.242Z,1002.59
2018-07-12T03:46:10.262Z,1002.58
2018-07-12T03:47:10.281Z,1002.58
2018-07-12T03:48:10.303Z,1002.54
2018-07-12T03:49:10.324Z,1002.58
2018-07-12T03:50:10.342Z,1002.59
2018-07-12T03:51:10.362Z,1002.6
2018-07-12T03:52:10.383Z,1002.59
2018-07-12T03:53:10.402Z,1002.6
2018-07-12T03:54:10.423Z,1002.59
2018-07-12T03:55:10.443Z,1002.59
2018-07-12T03:56:10.464Z,1002.58
2018-07-12T03:57:10.484Z,1002.62
2018-07-12T03:58:10.561Z,1002.61
2018-07-12T03:59:10.526Z,1002.63
2018-07-12T04:00:10.544Z,1002.64
2018-07-12T04:01:10.563Z,1002.7
2018-07-12T04:02:10.584Z,1002.69
2018-07-12T04:03:10.604Z,1002.68
2018-07-12T04:04:10.625Z,1002.73
2018-07-12T04:05:10.643Z,1002.68
2018-07-12T04:06:10.664Z,1002.69
2018-07-12T04:07:10.684Z,1002.7
2018-07-12T04:08:10.705Z,1002.66
2018-07-12T04:09:10.725Z,1002.71
2018-07-12T04:10:10.744Z,1002.68
2018-07-12T04:11:10.765Z,1002.69
2018-07-12T04:12:10.785Z,1002.72
2018-07-12T04:13:10.806Z,1002.72
2018-07-12T04:14:10.828Z,1002.7
2018-07-12T04:15:10.846Z,1002.72
2018-07-12T04:16:10.869Z,1002.68
2018-07-12T04:17:10.885Z,1002.69
2018-07-12T04:18:10.905Z,1002.7
2018-07-12T04:19:10.928Z,1002.72
2018-07-12T04:20:10.946Z,1002.71
2018-07-12T04:21:10.968Z,1002.71
2018-07-12T04:22:10.985Z,1002.69
2018-07-12T04:23:11.006Z,1002.71
2018-07-12T04:24:11.026Z,1002.71
2018-07-12T04:25:11.051Z,1002.69
2018-07-12T04:26:11.068Z,1002.7
2018-07-12T04:27:11.086Z,1002.71
2018-07-12T04:28:11.106Z,1002.67
2018-07-12T04:29:11.127Z,1002.71
2018-07-12T04:30:11.148Z,1002.7
2018-07-12T04:31:11.167Z,1002.72
2018-07-12T04:32:11.188Z,1002.72
2018-07-12T04:33:11.209Z,1002.69
2018-07-12T04:34:11.295Z,1002.69
2018-07-12T04:35:11.247Z,1002.7
2018-07-12T04:36:11.268Z,1002.69
2018-07-12T04:37:11.289Z,1002.69
2018-07-12T04:38:11.309Z,1002.68
2018-07-12T04:39:11.328Z,1002.65
2018-07-12T04:40:11.349Z,1002.64
2018-07-12T04:41:11.373Z,1002.65
2018-07-12T04:42:11.390Z,1002.65
2018-07-12T04:43:11.409Z,1002.6
2018-07-12T04:44:11.433Z,1002.62
2018-07-12T04:45:11.449Z,1002.62
2018-07-12T04:46:11.469Z,1002.6
2018-07-12T04:47:11.489Z,1002.6
2018-07-12T04:48:11.509Z,1002.58
2018-07-12T04:49:11.529Z,1002.6
2018-07-12T04:50:11.549Z,1002.61
2018-07-12T04:51:11.640Z,1002.6
2018-07-12T04:52:11.590Z,1002.61
2018-07-12T04:53:11.609Z,1002.59
2018-07-12T04:54:11.631Z,1002.55
2018-07-12T04:55:11.651Z,1002.57
2018-07-12T04:56:11.671Z,1002.58
2018-07-12T04:57:11.689Z,1002.55
2018-07-12T04:58:11.822Z,1002.55
2018-07-12T04:59:11.732Z,1002.52
2018-07-12T05:00:11.751Z,1002.53
2018-07-12T05:01:11.771Z,1002.53
2018-07-12T05:02:11.792Z,1002.55
2018-07-12T05:03:11.812Z,1002.51
2018-07-12T05:04:11.832Z,1002.52
2018-07-12T05:05:11.853Z,1002.54
2018-07-12T05:06:11.874Z,1002.57
2018-07-12T05:07:11.893Z,1002.52
2018-07-12T05:08:12.019Z,1002.51
2018-07-12T05:09:11.934Z,1002.53
2018-07-12T05:10:11.955Z,1002.49
2018-07-12T05:11:11.974Z,1002.53
2018-07-12T05:12:11.995Z,1002.47
2018-07-12T05:13:12.014Z,1002.49
2018-07-12T05:14:12.035Z,1002.5
2018-07-12T05:15:12.055Z,1002.47
2018-07-12T05:16:12.117Z,1002.53
2018-07-12T05:17:12.096Z,1002.52
2018-07-12T05:18:12.116Z,1002.51
2018-07-12T05:19:12.145Z,1002.55
2018-07-12T05:20:12.157Z,1002.55
2018-07-12T05:21:12.177Z,1002.58
2018-07-12T05:22:12.201Z,1002.59
2018-07-12T05:23:12.216Z,1002.57
2018-07-12T05:24:12.237Z,1002.56
2018-07-12T05:25:12.257Z,1002.56
2018-07-12T05:26:12.277Z,1002.58
2018-07-12T05:27:12.296Z,1002.6
2018-07-12T05:28:12.318Z,1002.59
2018-07-12T05:29:12.339Z,1002.61
2018-07-12T05:30:12.357Z,1002.59
2018-07-12T05:31:12.379Z,1002.59
2018-07-12T05:32:12.399Z,1002.56
2018-07-12T05:33:12.419Z,1002.61
2018-07-12T05:34:12.440Z,1002.59
2018-07-12T05:35:12.460Z,1002.58
2018-07-12T05:36:12.483Z,1002.55
2018-07-12T05:37:12.500Z,1002.52
2018-07-12T05:38:12.520Z,1002.49
2018-07-12T05:39:12.595Z,1002.48
2018-07-12T05:40:12.562Z,1002.44
2018-07-12T05:41:12.582Z,1002.38
2018-07-12T05:42:12.602Z,1002.41
2018-07-12T05:43:12.622Z,1002.42
2018-07-12T05:44:12.643Z,1002.32
2018-07-12T05:45:12.663Z,1002.37
2018-07-12T05:46:12.689Z,1002.33
2018-07-12T05:47:12.703Z,1002.34
2018-07-12T05:48:12.723Z,1002.3
2018-07-12T05:49:12.744Z,1002.35
2018-07-12T05:50:12.765Z,1002.37
2018-07-12T05:51:12.785Z,1002.41
2018-07-12T05:52:12.805Z,1002.41
2018-07-12T05:53:12.827Z,1002.42
2018-07-12T05:54:12.846Z,1002.42
2018-07-12T05:55:12.866Z,1002.41
2018-07-12T05:56:12.887Z,1002.42
2018-07-12T05:57:12.911Z,1002.38
2018-07-12T05:58:12.927Z,1002.38
2018-07-12T05:59:12.949Z,1002.41
2018-07-12T06:00:12.967Z,1002.41
2018-07-12T06:01:12.989Z,1002.42
2018-07-12T06:02:13.009Z,1002.45
2018-07-12T06:03:13.031Z,1002.43
2018-07-12T06:04:13.050Z,1002.45
2018-07-12T06:05:13.071Z,1002.48
2018-07-12T06:06:13.090Z,1002.53
2018-07-12T06:07:13.111Z,1002.52
2018-07-12T06:08:13.132Z,1002.53
2018-07-12T06:09:13.152Z,1002.48
2018-07-12T06:10:13.173Z,1002.51
2018-07-12T06:11:13.193Z,1002.47
2018-07-12T06:12:13.213Z,1002.47
2018-07-12T06:13:13.269Z,1002.45
2018-07-12T06:14:13.254Z,1002.48
2018-07-12T06:15:13.277Z,1002.49
2018-07-12T06:16:13.323Z,1002.52
2018-07-12T06:17:13.317Z,1002.51
2018-07-12T06:18:13.337Z,1002.56
2018-07-12T06:19:13.368Z,1002.58
2018-07-12T06:20:13.377Z,1002.58
2018-07-12T06:21:13.398Z,1002.58
2018-07-12T06:22:13.419Z,1002.6
2018-07-12T06:23:13.440Z,1002.57
2018-07-12T06:24:13.459Z,1002.62
2018-07-12T06:25:13.479Z,1002.66
2018-07-12T06:26:13.500Z,1002.66
2018-07-12T06:27:13.522Z,1002.71
2018-07-12T06:28:13.542Z,1002.67
2018-07-12T06:29:13.569Z,1002.66
2018-07-12T06:30:13.589Z,1002.65
2018-07-12T06:31:13.602Z,1002.68
2018-07-12T06:32:13.623Z,1002.66
2018-07-12T06:33:13.644Z,1002.63
2018-07-12T06:34:13.670Z,1002.59
2018-07-12T06:35:13.686Z,1002.6
2018-07-12T06:36:13.706Z,1002.67
2018-07-12T06:37:13.804Z,1002.67
2018-07-12T06:38:13.747Z,1002.66
2018-07-12T06:39:13.766Z,1002.64
2018-07-12T06:40:13.789Z,1002.66
2018-07-12T06:41:13.814Z,1002.64
2018-07-12T06:42:13.829Z,1002.66
2018-07-12T06:43:13.848Z,1002.73
2018-07-12T06:44:13.871Z,1002.72
2018-07-12T06:45:13.890Z,1002.72
2018-07-12T06:46:13.911Z,1002.74
2018-07-12T06:47:13.935Z,1002.77
2018-07-12T06:48:13.953Z,1002.74
2018-07-12T06:49:13.973Z,1002.8
2018-07-12T06:50:13.992Z,1002.78
2018-07-12T06:51:14.017Z,1002.81
2018-07-12T06:52:14.038Z,1002.81
2018-07-12T06:53:14.055Z,1002.81
2018-07-12T06:54:14.080Z,1002.82
2018-07-12T06:55:14.096Z,1002.78
2018-07-12T06:56:14.117Z,1002.77
2018-07-12T06:57:14.137Z,1002.75
2018-07-12T06:58:14.157Z,1002.76
2018-07-12T06:59:14.179Z,1002.72
2018-07-12T07:00:14.200Z,1002.73
2018-07-12T07:01:14.219Z,1002.71
2018-07-12T07:02:14.241Z,1002.69
2018-07-12T07:03:14.261Z,1002.75
2018-07-12T07:04:14.282Z,1002.75
2018-07-12T07:05:14.303Z,1002.74
2018-07-12T07:06:14.325Z,1002.72
2018-07-12T07:07:14.343Z,1002.79
2018-07-12T07:08:14.363Z,1002.71
2018-07-12T07:09:14.385Z,1002.67
2018-07-12T07:10:14.406Z,1002.63
2018-07-12T07:11:14.425Z,1002.62
2018-07-12T07:12:14.447Z,1002.62
2018-07-12T07:13:14.471Z,1002.66
2018-07-12T07:14:14.488Z,1002.61
2018-07-12T07:15:14.508Z,1002.62
2018-07-12T07:16:14.528Z,1002.64
2018-07-12T07:17:14.550Z,1002.61
2018-07-12T07:18:14.572Z,1002.6
2018-07-12T07:19:14.589Z,1002.58
2018-07-12T07:20:14.727Z,1002.6
2018-07-12T07:21:14.633Z,1002.63
2018-07-12T07:22:14.652Z,1002.6
2018-07-12T07:23:14.672Z,1002.64
2018-07-12T07:24:14.695Z,1002.64
2018-07-12T07:25:14.714Z,1002.64
2018-07-12T07:26:14.745Z,1002.61
2018-07-12T07:27:14.763Z,1002.65
2018-07-12T07:28:14.775Z,1002.62
2018-07-12T07:29:14.798Z,1002.63
2018-07-12T07:30:14.816Z,1002.62
2018-07-12T07:31:14.840Z,1002.64
2018-07-12T07:32:14.858Z,1002.64
2018-07-12T07:33:14.885Z,1002.63
2018-07-12T07:34:14.900Z,1002.66
2018-07-12T07:35:14.920Z,1002.67
2018-07-12T07:36:14.941Z,1002.67
2018-07-12T07:37:14.964Z,1002.64
2018-07-12T07:38:14.981Z,1002.68
2018-07-12T07:39:15.002Z,1002.67
2018-07-12T07:40:15.024Z,1002.61
2018-07-12T07:41:15.043Z,1002.63
2018-07-12T07:42:15.068Z,1002.71
2018-07-12T07:43:15.118Z,1002.66
2018-07-12T07:44:15.104Z,1002.67
2018-07-12T07:45:15.126Z,1002.64
2018-07-12T07:46:15.149Z,1002.65
2018-07-12T07:47:15.169Z,1002.72
2018-07-12T07:48:15.190Z,1002.72
2018-07-12T07:49:15.212Z,1002.7
2018-07-12T07:50:15.228Z,1002.75
2018-07-12T07:51:15.249Z,1002.71
2018-07-12T07:52:15.269Z,1002.71
2018-07-12T07:53:15.290Z,1002.72
2018-07-12T07:54:15.312Z,1002.74
2018-07-12T07:55:15.330Z,1002.74
2018-07-12T07:56:15.353Z,1002.73
2018-07-12T07:57:15.373Z,1002.69
2018-07-12T07:58:15.393Z,1002.68
2018-07-12T07:59:15.413Z,1002.69
2018-07-12T08:00:15.448Z,1002.69
2018-07-12T08:01:15.466Z,1002.68
2018-07-12T08:02:15.479Z,1002.66
2018-07-12T08:03:15.503Z,1002.7
2018-07-12T08:04:15.516Z,1002.64
2018-07-12T08:05:15.536Z,1002.72
2018-07-12T08:06:15.559Z,1002.73
2018-07-12T08:07:15.577Z,1002.7
2018-07-12T08:08:15.600Z,1002.72
2018-07-12T08:09:15.618Z,1002.76
2018-07-12T08:10:15.644Z,1002.68
2018-07-12T08:11:15.664Z,1002.73
2018-07-12T08:12:15.682Z,1002.67
2018-07-12T08:13:15.710Z,1002.71
2018-07-12T08:14:15.723Z,1002.69
2018-07-12T08:15:15.745Z,1002.7
2018-07-12T08:16:15.898Z,1002.69
2018-07-12T08:17:15.785Z,1002.67
2018-07-12T08:18:15.810Z,1002.66
2018-07-12T08:19:15.827Z,1002.67
2018-07-12T08:20:15.848Z,1002.65
2018-07-12T08:21:15.868Z,1002.69
2018-07-12T08:22:15.890Z,1002.73
2018-07-12T08:23:15.909Z,1002.79
2018-07-12T08:24:15.930Z,1002.78
2018-07-12T08:25:15.950Z,1002.63
2018-07-12T08:26:15.972Z,1002.71
2018-07-12T08:27:15.993Z,1002.61
2018-07-12T08:28:16.013Z,1002.64
2018-07-12T08:29:16.034Z,1002.62
2018-07-12T08:30:16.057Z,1002.63
2018-07-12T08:31:16.112Z,1002.65
2018-07-12T08:32:16.099Z,1002.67
2018-07-12T08:33:16.149Z,1002.65
2018-07-12T08:34:16.136Z,1002.68
2018-07-12T08:35:16.157Z,1002.62
2018-07-12T08:36:16.204Z,1002.66
2018-07-12T08:37:16.198Z,1002.68
2018-07-12T08:38:16.219Z,1002.68
2018-07-12T08:39:16.240Z,1002.65
2018-07-12T08:40:16.261Z,1002.67
2018-07-12T08:41:16.287Z,1002.64
2018-07-12T08:42:16.342Z,1002.63
2018-07-12T08:43:16.406Z,1002.6
2018-07-12T08:44:16.344Z,1002.6
2018-07-12T08:45:16.365Z,1002.64
2018-07-12T08:46:16.447Z,1002.67
2018-07-12T08:47:16.406Z,1002.6
2018-07-12T08:48:16.467Z,1002.66
2018-07-12T08:49:16.526Z,1002.67
2018-07-12T08:50:16.536Z,1002.65
2018-07-12T08:51:16.489Z,1002.64
2018-07-12T08:52:16.561Z,1002.61
2018-07-12T08:53:16.588Z,1002.62
2018-07-12T08:54:16.554Z,1002.61
2018-07-12T08:55:16.572Z,1002.61
2018-07-12T08:56:16.593Z,1002.6
2018-07-12T08:57:16.617Z,1002.63
2018-07-12T08:58:16.635Z,1002.63
2018-07-12T08:59:16.658Z,1002.56
2018-07-12T09:00:16.685Z,1002.59
2018-07-12T09:01:16.697Z,1002.61
2018-07-12T09:02:16.729Z,1002.64
2018-07-12T09:03:16.742Z,1002.68
2018-07-12T09:04:16.760Z,1002.68
2018-07-12T09:05:16.780Z,1002.73
2018-07-12T09:06:16.801Z,1002.74
2018-07-12T09:07:16.825Z,1002.7
2018-07-12T09:08:16.841Z,1002.63
2018-07-12T09:09:16.862Z,1002.64
2018-07-12T09:10:16.893Z,1002.62
2018-07-12T09:11:16.911Z,1002.62
2018-07-12T09:12:16.925Z,1002.65
2018-07-12T09:13:16.946Z,1002.62
2018-07-12T09:14:16.967Z,1002.65
2018-07-12T09:15:16.989Z,1002.64
2018-07-12T09:16:17.009Z,1002.67
2018-07-12T09:17:17.029Z,1002.67
2018-07-12T09:18:17.051Z,1002.65
2018-07-12T09:19:17.071Z,1002.69
2018-07-12T09:20:17.091Z,1002.67
2018-07-12T09:21:17.113Z,1002.66
2018-07-12T09:22:17.134Z,1002.66
2018-07-12T09:23:17.155Z,1002.66
2018-07-12T09:24:17.176Z,1002.62
2018-07-12T09:25:17.257Z,1002.63
2018-07-12T09:26:17.219Z,1002.61
2018-07-12T09:27:17.239Z,1002.62
2018-07-12T09:28:17.260Z,1002.6
2018-07-12T09:29:17.361Z,1002.65
2018-07-12T09:30:17.309Z,1002.64
2018-07-12T09:31:17.328Z,1002.65
2018-07-12T09:32:17.344Z,1002.67
2018-07-12T09:33:17.365Z,1002.66
2018-07-12T09:34:17.385Z,1002.65
2018-07-12T09:35:17.407Z,1002.69
2018-07-12T09:36:17.428Z,1002.67
2018-07-12T09:37:17.452Z,1002.67
2018-07-12T09:38:17.469Z,1002.62
2018-07-12T09:39:17.491Z,1002.68
2018-07-12T09:40:17.514Z,1002.7
2018-07-12T09:41:17.532Z,1002.77
2018-07-12T09:42:17.554Z,1002.77
2018-07-12T09:43:17.580Z,1002.78
2018-07-12T09:44:17.610Z,1002.76
2018-07-12T09:45:17.669Z,1002.74
2018-07-12T09:46:17.639Z,1002.8
2018-07-12T09:47:17.749Z,1002.76
2018-07-12T09:48:17.702Z,1002.79
2018-07-12T09:49:17.863Z,1002.74
2018-07-12T09:50:17.723Z,1002.74
2018-07-12T09:51:17.745Z,1002.76
2018-07-12T09:52:17.769Z,1002.76
2018-07-12T09:53:17.787Z,1002.79
2018-07-12T09:54:17.808Z,1002.78
2018-07-12T09:55:17.832Z,1002.77
2018-07-12T09:56:18.036Z,1002.75
2018-07-12T09:57:17.874Z,1002.74
2018-07-12T09:58:17.893Z,1002.73
2018-07-12T09:59:17.940Z,1002.77
2018-07-12T10:00:17.946Z,1002.74
2018-07-12T10:01:17.994Z,1002.71
2018-07-12T10:02:17.980Z,1002.77
2018-07-12T10:03:18.025Z,1002.73
2018-07-12T10:04:18.042Z,1002.75
2018-07-12T10:05:18.056Z,1002.75
2018-07-12T10:06:18.065Z,1002.75
2018-07-12T10:07:18.084Z,1002.77
2018-07-12T10:08:18.105Z,1002.77
2018-07-12T10:09:18.127Z,1002.77
2018-07-12T10:10:18.148Z,1002.73
2018-07-12T10:11:18.169Z,1002.78
2018-07-12T10:12:18.190Z,1002.72
2018-07-12T10:13:18.212Z,1002.75
2018-07-12T10:14:18.232Z,1002.69
2018-07-12T10:15:18.254Z,1002.67
2018-07-12T10:16:18.276Z,1002.71
2018-07-12T10:17:18.299Z,1002.64
2018-07-12T10:18:18.318Z,1002.68
2018-07-12T10:19:18.340Z,1002.67
2018-07-12T10:20:18.361Z,1002.76
2018-07-12T10:21:18.384Z,1002.8
2018-07-12T10:22:18.403Z,1002.78
2018-07-12T10:23:18.424Z,1002.83
2018-07-12T10:24:18.446Z,1002.84
2018-07-12T10:25:18.467Z,1002.84
2018-07-12T10:26:18.489Z,1002.83
2018-07-12T10:27:18.512Z,1002.86
2018-07-12T10:28:18.533Z,1002.81
2018-07-12T10:29:18.553Z,1002.9
2018-07-12T10:30:18.575Z,1002.86
2018-07-12T10:31:18.597Z,1002.77
2018-07-12T10:32:18.620Z,1002.75
2018-07-12T10:33:18.642Z,1002.77
2018-07-12T10:34:18.660Z,1002.76
2018-07-12T10:35:18.685Z,1002.78
2018-07-12T10:36:18.708Z,1002.77
2018-07-12T10:37:18.725Z,1002.71
2018-07-12T10:38:18.746Z,1002.76
2018-07-12T10:39:18.768Z,1002.79
2018-07-12T10:40:18.789Z,1002.78
2018-07-12T10:41:18.811Z,1002.8
2018-07-12T10:42:18.836Z,1002.76
2018-07-12T10:43:18.863Z,1002.73
2018-07-12T10:44:18.873Z,1002.76
2018-07-12T10:45:18.897Z,1002.79
2018-07-12T10:46:18.924Z,1002.78
2018-07-12T10:47:18.940Z,1002.78
2018-07-12T10:48:18.961Z,1002.83
2018-07-12T10:49:18.982Z,1002.77
2018-07-12T10:50:19.004Z,1002.83
2018-07-12T10:51:19.025Z,1002.78
2018-07-12T10:52:19.047Z,1002.79
2018-07-12T10:53:19.069Z,1002.71
2018-07-12T10:54:19.090Z,1002.7
2018-07-12T10:55:19.112Z,1002.74
2018-07-12T10:56:19.134Z,1002.72
2018-07-12T10:57:19.156Z,1002.74
2018-07-12T10:58:19.178Z,1002.73
2018-07-12T10:59:19.199Z,1002.73
2018-07-12T11:00:19.222Z,1002.75
2018-07-12T11:01:19.245Z,1002.68
2018-07-12T11:02:19.265Z,1002.67
2018-07-12T11:03:19.298Z,1002.69
2018-07-12T11:04:19.314Z,1002.7
2018-07-12T11:05:19.331Z,1002.71
2018-07-12T11:06:19.354Z,1002.7
2018-07-12T11:07:19.376Z,1002.64
2018-07-12T11:08:19.398Z,1002.69
2018-07-12T11:09:19.487Z,1002.67
2018-07-12T11:10:19.443Z,1002.67
2018-07-12T11:11:19.555Z,1002.66
2018-07-12T11:12:19.487Z,1002.66
2018-07-12T11:13:19.509Z,1002.69
2018-07-12T11:14:19.531Z,1002.75
2018-07-12T11:15:19.554Z,1002.76
2018-07-12T11:16:19.575Z,1002.76
2018-07-12T11:17:19.609Z,1002.84
2018-07-12T11:18:19.620Z,1002.79
2018-07-12T11:19:19.643Z,1002.77
2018-07-12T11:20:19.665Z,1002.77
2018-07-12T11:21:19.690Z,1002.74
2018-07-12T11:22:19.711Z,1002.76
2018-07-12T11:23:19.734Z,1002.81
2018-07-12T11:24:19.757Z,1002.81
2018-07-12T11:25:19.780Z,1002.83
2018-07-12T11:26:19.802Z,1002.87
2018-07-12T11:27:19.825Z,1002.89
2018-07-12T11:28:19.852Z,1002.92
2018-07-12T11:29:19.872Z,1002.9
2018-07-12T11:30:19.929Z,1002.96
2018-07-12T11:31:19.914Z,1002.94
2018-07-12T11:32:19.937Z,1002.95
2018-07-12T11:33:19.962Z,1002.88
2018-07-12T11:34:19.982Z,1002.92
2018-07-12T11:35:20.005Z,1002.9
2018-07-12T11:36:20.095Z,1002.92
2018-07-12T11:37:20.050Z,1002.85
2018-07-12T11:38:20.073Z,1002.9
2018-07-12T11:39:20.095Z,1002.83
2018-07-12T11:40:20.118Z,1002.82
2018-07-12T11:41:20.140Z,1002.79
2018-07-12T11:42:20.164Z,1002.77
2018-07-12T11:43:20.201Z,1002.81
2018-07-12T11:44:20.212Z,1002.84
2018-07-12T11:45:20.232Z,1002.81
2018-07-12T11:46:20.255Z,1002.8
2018-07-12T11:47:20.277Z,1002.82
2018-07-12T11:48:20.301Z,1002.81
2018-07-12T11:49:20.323Z,1002.84
2018-07-12T11:50:20.368Z,1002.84
2018-07-12T11:51:20.370Z,1002.77
2018-07-12T11:52:20.392Z,1002.77
2018-07-12T11:53:20.415Z,1002.78
2018-07-12T11:54:20.439Z,1002.81
2018-07-12T11:55:20.462Z,1002.81
2018-07-12T11:56:20.484Z,1002.83
2018-07-12T11:57:20.507Z,1002.84
2018-07-12T11:58:20.532Z,1002.86
2018-07-12T11:59:20.554Z,1002.82
2018-07-12T12:00:20.575Z,1002.85
2018-07-12T12:01:20.605Z,1002.83
2018-07-12T12:02:20.624Z,1002.86
2018-07-12T12:03:20.648Z,1002.85
2018-07-12T12:04:20.669Z,1002.88
2018-07-12T12:05:20.693Z,1002.87
2018-07-12T12:06:20.717Z,1002.85
2018-07-12T12:07:20.739Z,1002.85